Time;durP1;ratioP1;P1;durP2;ratioP2;P2;SDS_P1;SDS_P2;PMS_P1;PMS_P2;Temp;Humidity;BMP_temperature;BMP_pressure;BME280_temperature;BME280_humidity;BME280_pressure;Samples;Min_cycle;Max_cycle;Signal;HPM_P1;HPM_P2
2022/04/21 00:01:52;;;;;;;12.23;11.03;;;;;;;;;;640134;224;27510;-68
2022/04/21 00:04:20;;;;;;;12.97;11.00;;;;;;;;;;640277;224;27511;-68
2022/04/21 00:06:49;;;;;;;11.60;10.50;;;;;;;;;;636085;224;27930;-68
2022/04/21 00:09:16;;;;;;;12.10;10.63;;;;;;;;;;634256;223;27548;-68
2022/04/21 00:11:44;;;;;;;12.63;10.97;;;;;;;;;;636100;224;27453;-68
2022/04/21 00:14:12;;;;;;;11.93;10.83;;;;;;;;;;634297;226;27925;-67
2022/04/21 00:16:40;;;;;;;11.97;10.77;;;;;;;;;;634073;224;27491;-68
2022/04/21 00:19:08;;;;;;;11.20;10.10;;;;;;;;;;634100;226;27508;-67
2022/04/21 00:24:11;;;;;;;11.43;10.27;;;;;;;;;;633883;226;27504;-68
2022/04/21 00:26:39;;;;;;;11.50;10.10;;;;;;;;;;634952;224;27528;-68
2022/04/21 00:29:07;;;;;;;9.87;8.97;;;;;;;;;;636922;224;27814;-68
2022/04/21 00:31:36;;;;;;;10.93;9.90;;;;;;;;;;639763;224;27518;-68
2022/04/21 00:34:03;;;;;;;10.97;9.60;;;;;;;;;;639030;224;27471;-68
2022/04/21 00:36:31;;;;;;;12.03;10.50;;;;;;;;;;634039;224;27536;-69
2022/04/21 00:38:59;;;;;;;11.40;10.20;;;;;;;;;;637157;224;27519;-70
2022/04/21 00:41:27;;;;;;;9.87;8.87;;;;;;;;;;639324;224;27887;-68
2022/04/21 00:43:55;;;;;;;10.70;9.70;;;;;;;;;;635029;224;27515;-69
2022/04/21 00:46:23;;;;;;;10.00;9.00;;;;;;;;;;637144;224;27580;-69
2022/04/21 00:48:51;;;;;;;9.90;8.60;;;;;;;;;;640152;224;27483;-68
2022/04/21 00:51:20;;;;;;;8.53;7.73;;;;;;;;;;641298;222;27492;-70
2022/04/21 00:53:48;;;;;;;8.47;7.67;;;;;;;;;;641449;224;27532;-69
2022/04/21 00:56:16;;;;;;;9.00;7.97;;;;;;;;;;640834;224;27505;-69
2022/04/21 00:58:44;;;;;;;9.20;7.83;;;;;;;;;;640441;222;27501;-70
2022/04/21 01:02:46;;;;;;;9.60;8.30;;;;;;;;;;640099;224;28150;-69
2022/04/21 01:03:40;;;;;;;8.43;7.63;;;;;;;;;;638540;223;27551;-70
2022/04/21 01:06:08;;;;;;;8.63;7.90;;;;;;;;;;640137;224;27544;-70
2022/04/21 01:08:37;;;;;;;7.87;7.17;;;;;;;;;;640130;224;27521;-69
2022/04/21 01:11:04;;;;;;;10.53;8.00;;;;;;;;;;639774;224;27489;-70
2022/04/21 01:13:32;;;;;;;8.83;7.80;;;;;;;;;;639891;223;28122;-70
2022/04/21 01:16:00;;;;;;;7.23;6.53;;;;;;;;;;636154;224;27457;-68
2022/04/21 01:18:28;;;;;;;7.70;7.00;;;;;;;;;;634457;226;27485;-68
2022/04/21 01:20:56;;;;;;;7.80;7.00;;;;;;;;;;635673;225;27886;-69
2022/04/21 01:23:24;;;;;;;7.97;6.93;;;;;;;;;;638519;225;27505;-68
2022/04/21 01:25:52;;;;;;;8.63;7.70;;;;;;;;;;637652;224;27477;-70
2022/04/21 01:28:21;;;;;;;7.97;6.83;;;;;;;;;;635399;224;27560;-69
2022/04/21 01:30:49;;;;;;;7.57;6.73;;;;;;;;;;638205;224;27432;-68
2022/04/21 01:33:17;;;;;;;8.43;7.43;;;;;;;;;;636691;224;27872;-69
2022/04/21 01:35:45;;;;;;;8.00;6.67;;;;;;;;;;638407;224;27445;-69
2022/04/21 01:43:20;;;;;;;8.50;7.60;;;;;;;;;;640119;224;27950;-69
2022/04/21 01:45:49;;;;;;;7.23;6.57;;;;;;;;;;640037;224;27439;-69
2022/04/21 01:48:17;;;;;;;6.83;6.10;;;;;;;;;;639523;224;27472;-70
2022/04/21 01:50:45;;;;;;;8.20;7.40;;;;;;;;;;638321;224;27493;-70
2022/04/21 01:53:13;;;;;;;6.90;6.30;;;;;;;;;;634245;226;27933;-69
2022/04/21 01:55:41;;;;;;;7.43;6.73;;;;;;;;;;635120;224;27552;-69
2022/04/21 01:58:09;;;;;;;7.60;6.77;;;;;;;;;;640066;224;25427;-71
2022/04/21 02:00:37;;;;;;;7.60;6.50;;;;;;;;;;639983;224;27503;-70
2022/04/21 02:03:05;;;;;;;6.83;6.23;;;;;;;;;;640865;222;27469;-70
2022/04/21 02:05:33;;;;;;;7.33;6.63;;;;;;;;;;638925;223;27467;-69
2022/04/21 02:08:02;;;;;;;6.90;6.20;;;;;;;;;;641104;223;27448;-71
2022/04/21 02:10:30;;;;;;;6.93;6.33;;;;;;;;;;640857;222;27958;-73
2022/04/21 02:12:57;;;;;;;7.30;6.53;;;;;;;;;;640648;224;27716;-71
2022/04/21 02:15:25;;;;;;;6.23;5.63;;;;;;;;;;640452;224;27475;-70
2022/04/21 02:17:53;;;;;;;7.00;5.97;;;;;;;;;;634726;226;27533;-70
2022/04/21 02:20:21;;;;;;;7.40;6.40;;;;;;;;;;634733;224;27590;-69
2022/04/21 02:22:49;;;;;;;7.00;6.30;;;;;;;;;;634391;224;28191;-68
2022/04/21 02:25:17;;;;;;;6.30;5.70;;;;;;;;;;635037;224;27453;-67
2022/04/21 02:27:45;;;;;;;5.90;5.40;;;;;;;;;;639828;224;27548;-68
2022/04/21 02:30:13;;;;;;;6.50;5.70;;;;;;;;;;634569;224;27486;-68
2022/04/21 02:32:41;;;;;;;6.97;6.17;;;;;;;;;;634558;224;27921;-69
2022/04/21 02:35:10;;;;;;;5.73;5.23;;;;;;;;;;634520;226;27465;-69
2022/04/21 02:37:38;;;;;;;5.97;5.47;;;;;;;;;;634531;224;25359;-69
2022/04/21 02:40:06;;;;;;;6.30;5.70;;;;;;;;;;634249;225;27695;-69
2022/04/21 02:42:34;;;;;;;5.83;5.30;;;;;;;;;;639688;224;27509;-70
2022/04/21 02:45:04;;;;;;;5.60;5.10;;;;;;;;;;640108;224;28182;-70
2022/04/21 02:47:30;;;;;;;5.63;5.03;;;;;;;;;;634673;223;27523;-68
2022/04/21 02:49:58;;;;;;;7.03;6.37;;;;;;;;;;634130;226;27534;-68
2022/04/21 02:52:26;;;;;;;5.47;5.00;;;;;;;;;;634137;224;27521;-68
2022/04/21 02:57:30;;;;;;;6.07;5.47;;;;;;;;;;634185;224;27485;-69
2022/04/21 02:59:57;;;;;;;6.23;5.63;;;;;;;;;;634232;225;27523;-69
2022/04/21 03:02:25;;;;;;;5.37;4.60;;;;;;;;;;634151;224;27952;-68
2022/04/21 03:04:54;;;;;;;5.37;4.87;;;;;;;;;;634101;226;27499;-68
2022/04/21 03:07:22;;;;;;;5.93;5.43;;;;;;;;;;634206;224;27531;-69
2022/04/21 03:09:50;;;;;;;5.80;5.30;;;;;;;;;;634062;224;26099;-71
2022/04/21 03:12:18;;;;;;;5.53;5.03;;;;;;;;;;634191;224;27516;-69
2022/04/21 03:14:46;;;;;;;5.57;5.07;;;;;;;;;;635443;224;27527;-70
2022/04/21 03:17:14;;;;;;;6.73;6.00;;;;;;;;;;635549;224;27758;-69
2022/04/21 03:19:42;;;;;;;5.87;5.33;;;;;;;;;;635123;226;28202;-71
2022/04/21 03:24:44;;;;;;;5.17;4.77;;;;;;;;;;634763;226;27555;-71
2022/04/21 03:27:12;;;;;;;5.43;5.03;;;;;;;;;;634825;224;27501;-70
2022/04/21 03:29:40;;;;;;;5.40;4.90;;;;;;;;;;638872;224;27549;-70
2022/04/21 03:32:09;;;;;;;5.63;5.13;;;;;;;;;;639881;224;27932;-70
2022/04/21 03:34:37;;;;;;;5.77;4.70;;;;;;;;;;639679;224;27527;-70
2022/04/21 03:37:05;;;;;;;5.43;4.93;;;;;;;;;;639451;224;27528;-70
2022/04/21 03:39:33;;;;;;;5.93;5.33;;;;;;;;;;640408;224;27517;-70
2022/04/21 03:42:01;;;;;;;5.00;4.60;;;;;;;;;;637376;224;27784;-73
2022/04/21 03:44:29;;;;;;;5.70;5.20;;;;;;;;;;634445;224;27468;-68
2022/04/21 03:46:58;;;;;;;5.87;5.20;;;;;;;;;;634499;224;27471;-68
2022/04/21 03:49:26;;;;;;;5.57;5.03;;;;;;;;;;634441;224;27492;-69
2022/04/21 03:51:54;;;;;;;6.33;5.40;;;;;;;;;;637811;224;27912;-70
2022/04/21 03:54:22;;;;;;;5.53;4.93;;;;;;;;;;640174;224;27460;-69
2022/04/21 03:56:50;;;;;;;5.67;5.17;;;;;;;;;;639777;223;27504;-69
2022/04/21 03:59:18;;;;;;;5.67;4.80;;;;;;;;;;639418;222;27468;-69
2022/04/21 04:01:46;;;;;;;5.37;4.93;;;;;;;;;;636558;224;27456;-69
2022/04/21 04:04:14;;;;;;;4.83;4.43;;;;;;;;;;634130;226;27814;-69
2022/04/21 04:11:50;;;;;;;4.37;3.83;;;;;;;;;;634149;224;27509;-70
2022/04/21 04:14:18;;;;;;;4.47;4.07;;;;;;;;;;638491;224;27464;-68
2022/04/21 04:16:46;;;;;;;5.33;4.83;;;;;;;;;;636717;224;27916;-69
2022/04/21 04:19:14;;;;;;;4.90;4.50;;;;;;;;;;634171;226;27519;-69
2022/04/21 04:21:42;;;;;;;4.80;4.40;;;;;;;;;;634194;224;27580;-69
2022/04/21 04:24:10;;;;;;;5.37;4.70;;;;;;;;;;634162;226;27519;-70
2022/04/21 04:26:38;;;;;;;5.03;4.53;;;;;;;;;;639169;224;27491;-69
2022/04/21 04:29:06;;;;;;;5.67;5.17;;;;;;;;;;638014;224;27886;-69
2022/04/21 04:31:34;;;;;;;5.60;5.10;;;;;;;;;;637717;224;27580;-73
2022/04/21 04:34:02;;;;;;;4.63;4.20;;;;;;;;;;635186;225;27491;-69
2022/04/21 04:36:30;;;;;;;5.87;5.27;;;;;;;;;;634861;224;28213;-70
2022/04/21 04:38:58;;;;;;;4.57;4.10;;;;;;;;;;634194;226;27472;-68
2022/04/21 04:44:00;;;;;;;4.23;3.93;;;;;;;;;;634540;226;27496;-71
2022/04/21 04:49:02;;;;;;;4.50;4.20;;;;;;;;;;634380;224;27912;-70
2022/04/21 04:51:31;;;;;;;4.30;3.90;;;;;;;;;;634594;224;27496;-71
2022/04/21 04:53:58;;;;;;;4.87;4.47;;;;;;;;;;634398;224;27473;-70
2022/04/21 04:56:28;;;;;;;4.40;4.00;;;;;;;;;;636716;224;28344;-69
2022/04/21 04:58:56;;;;;;;4.93;4.53;;;;;;;;;;640433;224;27555;-70
2022/04/21 05:01:26;;;;;;;5.23;4.73;;;;;;;;;;640032;224;28240;-70
2022/04/21 05:03:53;;;;;;;5.13;4.63;;;;;;;;;;639616;224;27575;-71
2022/04/21 05:06:20;;;;;;;4.70;4.30;;;;;;;;;;639787;220;28060;-69
2022/04/21 05:08:48;;;;;;;4.00;3.70;;;;;;;;;;639463;224;27464;-70
2022/04/21 05:11:17;;;;;;;4.03;3.73;;;;;;;;;;639475;224;27464;-70
2022/04/21 05:13:45;;;;;;;4.77;4.37;;;;;;;;;;639475;223;27447;-69
2022/04/21 05:16:13;;;;;;;4.70;4.30;;;;;;;;;;639509;224;27461;-70
2022/04/21 05:18:41;;;;;;;4.67;4.30;;;;;;;;;;639705;224;27879;-70
2022/04/21 05:21:09;;;;;;;4.50;4.10;;;;;;;;;;639892;223;27938;-69
2022/04/21 05:23:37;;;;;;;4.50;4.10;;;;;;;;;;639492;224;27485;-71
2022/04/21 05:26:05;;;;;;;4.23;3.90;;;;;;;;;;638522;224;27918;-70
2022/04/21 05:28:33;;;;;;;4.93;4.53;;;;;;;;;;638349;223;27493;-70
2022/04/21 05:31:02;;;;;;;4.23;3.83;;;;;;;;;;634224;224;27640;-70
2022/04/21 05:33:29;;;;;;;4.53;4.23;;;;;;;;;;634006;225;27471;-69
2022/04/21 05:35:57;;;;;;;4.30;4.00;;;;;;;;;;634250;224;27501;-70
2022/04/21 05:38:26;;;;;;;4.33;4.03;;;;;;;;;;635797;224;27946;-69
2022/04/21 05:40:54;;;;;;;4.10;3.80;;;;;;;;;;634882;223;27754;-71
2022/04/21 05:43:23;;;;;;;4.07;3.70;;;;;;;;;;635080;226;27498;-68
2022/04/21 05:45:50;;;;;;;4.10;3.80;;;;;;;;;;635678;224;27547;-70
2022/04/21 05:48:18;;;;;;;4.27;3.87;;;;;;;;;;640792;223;27500;-68
2022/04/21 05:50:49;;;;;;;4.20;3.80;;;;;;;;;;640712;224;27936;-69
2022/04/21 05:53:21;;;;;;;3.90;3.50;;;;;;;;;;639996;224;28063;-70
2022/04/21 05:55:50;;;;;;;4.20;3.90;;;;;;;;;;639413;224;27508;-70
2022/04/21 05:58:18;;;;;;;4.60;4.20;;;;;;;;;;634480;224;27934;-70
2022/04/21 06:00:46;;;;;;;4.40;4.00;;;;;;;;;;634801;224;27485;-69
2022/04/21 06:03:14;;;;;;;4.20;3.80;;;;;;;;;;639759;224;27530;-68
2022/04/21 06:05:42;;;;;;;4.33;3.93;;;;;;;;;;639822;224;27513;-68
2022/04/21 06:08:10;;;;;;;3.87;3.57;;;;;;;;;;634585;226;27501;-68
2022/04/21 06:10:38;;;;;;;3.70;3.40;;;;;;;;;;634526;224;27931;-68
2022/04/21 06:13:06;;;;;;;4.10;3.70;;;;;;;;;;634398;226;27491;-69
2022/04/21 06:15:34;;;;;;;3.90;3.60;;;;;;;;;;634156;225;27533;-68
2022/04/21 06:18:02;;;;;;;4.57;4.17;;;;;;;;;;640168;224;27882;-69
2022/04/21 06:20:30;;;;;;;3.60;3.30;;;;;;;;;;640154;224;27468;-69
2022/04/21 06:22:58;;;;;;;3.57;3.30;;;;;;;;;;639542;224;27467;-69
2022/04/21 06:25:26;;;;;;;3.90;3.50;;;;;;;;;;639697;224;27452;-69
2022/04/21 06:27:54;;;;;;;4.00;3.63;;;;;;;;;;639993;224;25395;-69
2022/04/21 06:30:23;;;;;;;3.97;3.67;;;;;;;;;;640145;224;27497;-69
2022/04/21 06:32:51;;;;;;;3.33;3.10;;;;;;;;;;639482;224;27464;-69
2022/04/21 06:35:18;;;;;;;3.17;2.90;;;;;;;;;;639484;224;27471;-70
2022/04/21 06:37:47;;;;;;;3.20;3.00;;;;;;;;;;640069;224;27784;-70
2022/04/21 06:40:14;;;;;;;3.53;3.23;;;;;;;;;;640081;224;27484;-69
2022/04/21 06:42:42;;;;;;;3.97;3.67;;;;;;;;;;640204;224;27448;-69
2022/04/21 06:50:18;;;;;;;3.57;3.27;;;;;;;;;;641989;222;27534;-69
2022/04/21 06:52:46;;;;;;;3.77;3.47;;;;;;;;;;636106;224;27468;-71
2022/04/21 06:55:14;;;;;;;3.33;3.03;;;;;;;;;;635145;226;27463;-69
2022/04/21 06:57:42;;;;;;;3.93;3.63;;;;;;;;;;635121;224;27474;-69
2022/04/21 07:00:10;;;;;;;3.93;3.63;;;;;;;;;;635460;224;27997;-69
2022/04/21 07:02:41;;;;;;;3.57;3.30;;;;;;;;;;635957;224;27500;-69
2022/04/21 07:05:07;;;;;;;3.60;3.30;;;;;;;;;;634690;224;27937;-69
2022/04/21 07:07:35;;;;;;;4.27;3.67;;;;;;;;;;638695;224;27522;-69
2022/04/21 07:10:03;;;;;;;3.10;2.90;;;;;;;;;;639850;224;27935;-70
2022/04/21 07:12:31;;;;;;;2.90;2.70;;;;;;;;;;640265;224;27976;-70
2022/04/21 07:15:00;;;;;;;3.50;3.20;;;;;;;;;;640449;224;27524;-70
2022/04/21 07:17:28;;;;;;;3.57;3.13;;;;;;;;;;639751;224;27562;-70
2022/04/21 07:19:56;;;;;;;3.20;3.00;;;;;;;;;;640470;224;27725;-69
2022/04/21 07:22:25;;;;;;;3.17;2.97;;;;;;;;;;640424;223;27522;-69
2022/04/21 07:24:53;;;;;;;3.43;3.13;;;;;;;;;;640258;224;25431;-70
2022/04/21 07:27:21;;;;;;;3.50;3.20;;;;;;;;;;634559;223;27912;-70
2022/04/21 07:29:49;;;;;;;3.50;3.20;;;;;;;;;;638520;224;27457;-71
2022/04/21 07:32:17;;;;;;;3.27;3.07;;;;;;;;;;638409;224;27464;-70
2022/04/21 07:34:45;;;;;;;3.20;2.90;;;;;;;;;;634191;225;27935;-70
2022/04/21 07:37:13;;;;;;;2.80;2.60;;;;;;;;;;637325;224;27547;-70
2022/04/21 07:39:42;;;;;;;3.33;3.07;;;;;;;;;;639510;224;27463;-70
2022/04/21 07:42:09;;;;;;;3.27;2.93;;;;;;;;;;639919;224;27511;-69
2022/04/21 07:44:37;;;;;;;3.30;3.10;;;;;;;;;;640190;223;27480;-70
2022/04/21 07:47:06;;;;;;;3.13;2.93;;;;;;;;;;636325;223;27523;-69
2022/04/21 07:54:42;;;;;;;3.87;3.60;;;;;;;;;;640162;224;27962;-71
2022/04/21 07:57:09;;;;;;;3.27;3.07;;;;;;;;;;639710;224;27759;-69
2022/04/21 07:59:37;;;;;;;2.93;2.73;;;;;;;;;;639743;222;27472;-70
2022/04/21 08:02:08;;;;;;;3.60;3.30;;;;;;;;;;641241;223;27518;-69
2022/04/21 08:04:33;;;;;;;3.30;3.00;;;;;;;;;;640593;223;27521;-70
2022/04/21 08:07:01;;;;;;;3.20;2.90;;;;;;;;;;638218;224;27867;-69
2022/04/21 08:09:30;;;;;;;3.27;3.00;;;;;;;;;;640990;223;27459;-70
2022/04/21 08:11:58;;;;;;;3.50;3.20;;;;;;;;;;640232;224;26501;-72
2022/04/21 08:14:26;;;;;;;2.97;2.77;;;;;;;;;;640197;224;27480;-69
2022/04/21 08:16:54;;;;;;;3.20;3.00;;;;;;;;;;640434;224;25797;-72
2022/04/21 08:19:22;;;;;;;3.30;3.00;;;;;;;;;;640536;224;27499;-70
2022/04/21 08:21:50;;;;;;;3.07;2.77;;;;;;;;;;640449;224;27511;-70
2022/04/21 08:34:34;;;;;;;2.93;2.60;;;;;;;;;;640418;224;27585;-68
2022/04/21 08:37:02;;;;;;;3.00;2.70;;;;;;;;;;639836;224;28205;-67
2022/04/21 08:39:30;;;;;;;6.07;4.00;;;;;;;;;;639534;224;27485;-69
2022/04/21 08:41:58;;;;;;;4.73;3.10;;;;;;;;;;639311;224;27492;-68
2022/04/21 08:44:26;;;;;;;4.03;3.27;;;;;;;;;;639389;223;27935;-69
2022/04/21 08:46:54;;;;;;;4.30;3.70;;;;;;;;;;639470;224;27615;-72
2022/04/21 08:49:22;;;;;;;6.43;3.43;;;;;;;;;;639565;224;27467;-68
2022/04/21 08:51:50;;;;;;;5.50;3.80;;;;;;;;;;639482;224;27650;-68
2022/04/21 08:54:19;;;;;;;3.30;3.00;;;;;;;;;;639558;224;27465;-69
2022/04/21 08:56:49;;;;;;;3.50;2.73;;;;;;;;;;637571;224;27908;-67
2022/04/21 08:59:15;;;;;;;4.77;3.17;;;;;;;;;;634046;224;27558;-66
2022/04/21 09:01:43;;;;;;;8.30;2.90;;;;;;;;;;634147;224;27527;-65
2022/04/21 09:04:11;;;;;;;6.07;3.43;;;;;;;;;;634173;226;27758;-65
2022/04/21 09:06:39;;;;;;;3.00;2.80;;;;;;;;;;636177;224;27528;-68
2022/04/21 09:09:12;;;;;;;3.70;2.57;;;;;;;;;;640097;223;27491;-69
2022/04/21 09:11:42;;;;;;;3.70;2.50;;;;;;;;;;638996;223;27883;-68
2022/04/21 09:14:08;;;;;;;4.23;2.97;;;;;;;;;;635804;223;27525;-68
2022/04/21 09:16:36;;;;;;;4.03;2.80;;;;;;;;;;636691;223;27483;-68
2022/04/21 09:19:04;;;;;;;2.63;2.13;;;;;;;;;;640221;224;27575;-68
2022/04/21 09:21:36;;;;;;;4.10;2.83;;;;;;;;;;640566;224;27506;-67
2022/04/21 09:24:10;;;;;;;2.83;2.63;;;;;;;;;;640632;222;27466;-68
2022/04/21 09:26:38;;;;;;;4.53;2.80;;;;;;;;;;637320;223;27554;-66
2022/04/21 09:29:12;;;;;;;4.83;3.27;;;;;;;;;;625843;226;27873;-70
2022/04/21 09:31:41;;;;;;;5.57;2.93;;;;;;;;;;634369;224;27547;-69
2022/04/21 09:34:11;;;;;;;4.60;2.53;;;;;;;;;;624757;226;27551;-69
2022/04/21 09:36:39;;;;;;;3.70;1.93;;;;;;;;;;636021;224;27897;-69
2022/04/21 09:39:09;;;;;;;3.97;2.60;;;;;;;;;;640349;224;27512;-69
2022/04/21 09:41:35;;;;;;;5.03;2.57;;;;;;;;;;624730;227;27579;-70
2022/04/21 09:46:41;;;;;;;2.77;2.57;;;;;;;;;;633421;224;27927;-70
2022/04/21 09:49:09;;;;;;;3.43;2.30;;;;;;;;;;634042;225;27535;-72
2022/04/21 09:51:37;;;;;;;3.10;2.33;;;;;;;;;;635448;224;27542;-69
2022/04/21 09:54:05;;;;;;;5.00;2.77;;;;;;;;;;633939;226;27858;-70
2022/04/21 09:56:35;;;;;;;2.70;2.33;;;;;;;;;;635394;224;27754;-70
2022/04/21 09:59:03;;;;;;;3.03;2.73;;;;;;;;;;640026;223;27530;-70
2022/04/21 10:01:34;;;;;;;4.00;2.23;;;;;;;;;;639703;223;27526;-70
2022/04/21 10:04:00;;;;;;;4.10;2.60;;;;;;;;;;639328;224;27527;-68
2022/04/21 10:06:28;;;;;;;3.13;2.60;;;;;;;;;;638898;224;27517;-72
2022/04/21 10:08:56;;;;;;;2.87;2.10;;;;;;;;;;633920;225;27512;-71
2022/04/21 10:11:24;;;;;;;5.70;2.30;;;;;;;;;;634378;224;27524;-71
2022/04/21 10:13:52;;;;;;;3.00;2.23;;;;;;;;;;639748;224;27505;-72
2022/04/21 10:16:20;;;;;;;3.80;2.37;;;;;;;;;;639493;223;27522;-71
2022/04/21 10:18:50;;;;;;;3.40;2.87;;;;;;;;;;639343;224;27906;-71
2022/04/21 10:21:17;;;;;;;3.63;2.67;;;;;;;;;;634730;224;27751;-71
2022/04/21 10:23:45;;;;;;;3.70;2.50;;;;;;;;;;634789;224;27522;-73
2022/04/21 10:26:13;;;;;;;2.30;2.20;;;;;;;;;;637440;224;27505;-72
2022/04/21 10:28:41;;;;;;;2.90;2.10;;;;;;;;;;638558;224;25819;-73
2022/04/21 10:31:15;;;;;;;2.80;2.30;;;;;;;;;;635031;224;27476;-73
2022/04/21 10:33:49;;;;;;;2.53;2.00;;;;;;;;;;634634;224;27535;-71
2022/04/21 10:36:17;;;;;;;2.80;2.33;;;;;;;;;;639248;224;25861;-71
2022/04/21 10:38:45;;;;;;;3.30;2.33;;;;;;;;;;633523;224;27518;-72
2022/04/21 10:41:13;;;;;;;4.07;2.43;;;;;;;;;;633500;223;27544;-73
2022/04/21 10:43:47;;;;;;;2.70;2.17;;;;;;;;;;634208;226;27952;-73
2022/04/21 10:46:21;;;;;;;5.40;2.47;;;;;;;;;;634697;224;27521;-74
2022/04/21 10:48:49;;;;;;;3.80;2.80;;;;;;;;;;640304;223;27509;-71
2022/04/21 10:51:23;;;;;;;2.87;2.40;;;;;;;;;;640198;224;27508;-71
2022/04/21 10:59:04;;;;;;;5.30;2.63;;;;;;;;;;639569;224;27551;-72
2022/04/21 11:01:32;;;;;;;4.27;2.13;;;;;;;;;;634034;224;27510;-72
2022/04/21 11:04:04;;;;;;;5.23;2.63;;;;;;;;;;633829;226;27504;-72
2022/04/21 11:06:38;;;;;;;5.33;3.00;;;;;;;;;;633928;224;27569;-70
2022/04/21 11:09:05;;;;;;;3.83;2.67;;;;;;;;;;633917;224;27568;-71
2022/04/21 11:11:39;;;;;;;6.30;2.63;;;;;;;;;;634105;224;27528;-71
2022/04/21 11:14:07;;;;;;;18.30;3.10;;;;;;;;;;634016;225;27547;-71
2022/04/21 11:16:48;;;;;;;7.43;2.67;;;;;;;;;;634238;224;27508;-71
2022/04/21 11:19:21;;;;;;;3.27;2.83;;;;;;;;;;634147;223;27782;-72
2022/04/21 11:21:50;;;;;;;3.23;2.53;;;;;;;;;;634155;224;27531;-71
2022/04/21 11:24:18;;;;;;;2.43;2.23;;;;;;;;;;634176;226;27530;-72
2022/04/21 11:26:46;;;;;;;3.47;2.60;;;;;;;;;;637876;224;27456;-71
2022/04/21 11:29:14;;;;;;;3.57;2.70;;;;;;;;;;635670;224;27495;-72
2022/04/21 11:31:42;;;;;;;3.30;2.37;;;;;;;;;;624846;226;28032;-72
2022/04/21 11:34:10;;;;;;;3.23;2.60;;;;;;;;;;634279;226;27514;-72
2022/04/21 11:36:41;;;;;;;4.03;2.40;;;;;;;;;;637120;224;27494;-71
2022/04/21 11:39:07;;;;;;;3.60;2.43;;;;;;;;;;640517;223;27954;-69
2022/04/21 11:41:35;;;;;;;6.80;2.57;;;;;;;;;;637998;222;27486;-70
2022/04/21 11:44:03;;;;;;;2.70;2.27;;;;;;;;;;634883;224;27531;-71
2022/04/21 11:46:31;;;;;;;3.13;2.80;;;;;;;;;;634879;224;27927;-72
2022/04/21 11:49:00;;;;;;;7.67;4.20;;;;;;;;;;634814;224;27696;-70
2022/04/21 11:51:30;;;;;;;4.20;3.63;;;;;;;;;;635446;224;27523;-72
2022/04/21 11:54:03;;;;;;;5.03;3.00;;;;;;;;;;640384;224;27534;-72
2022/04/21 11:56:31;;;;;;;5.80;3.37;;;;;;;;;;639973;224;27556;-71
2022/04/21 11:59:08;;;;;;;3.33;3.07;;;;;;;;;;639774;224;27452;-71
2022/04/21 12:06:44;;;;;;;5.00;3.40;;;;;;;;;;639739;224;27546;-71
2022/04/21 12:09:13;;;;;;;3.73;2.77;;;;;;;;;;639880;224;27517;-71
2022/04/21 12:11:41;;;;;;;3.97;2.70;;;;;;;;;;637335;224;27526;-71
2022/04/21 12:14:09;;;;;;;4.83;2.90;;;;;;;;;;634085;225;27932;-71
2022/04/21 12:16:42;;;;;;;2.97;2.73;;;;;;;;;;634132;223;27532;-70
2022/04/21 12:19:11;;;;;;;5.00;3.20;;;;;;;;;;634128;224;28067;-73
2022/04/21 12:21:39;;;;;;;3.87;3.57;;;;;;;;;;637947;224;27526;-71
2022/04/21 12:24:09;;;;;;;3.87;3.57;;;;;;;;;;639960;224;28134;-71
2022/04/21 12:26:38;;;;;;;6.20;3.30;;;;;;;;;;639943;223;27943;-70
2022/04/21 12:29:06;;;;;;;3.30;2.67;;;;;;;;;;637814;224;27476;-70
2022/04/21 12:31:49;;;;;;;3.43;2.57;;;;;;;;;;639427;224;27492;-71
2022/04/21 12:34:21;;;;;;;8.20;4.80;;;;;;;;;;636438;224;27932;-71
2022/04/21 12:36:52;;;;;;;5.87;5.27;;;;;;;;;;637257;223;27948;-71
2022/04/21 12:39:20;;;;;;;7.37;5.20;;;;;;;;;;634037;225;27524;-72
2022/04/21 12:41:48;;;;;;;6.00;5.40;;;;;;;;;;635381;224;27975;-71
2022/04/21 12:44:18;;;;;;;6.37;5.50;;;;;;;;;;639841;224;27548;-71
2022/04/21 12:46:59;;;;;;;5.60;5.20;;;;;;;;;;640425;222;28052;-69
2022/04/21 12:49:33;;;;;;;5.00;4.70;;;;;;;;;;638583;224;25892;-70
2022/04/21 12:52:01;;;;;;;4.90;4.50;;;;;;;;;;640540;223;27524;-71
2022/04/21 12:54:29;;;;;;;5.37;4.87;;;;;;;;;;641030;224;27930;-71
2022/04/21 12:56:57;;;;;;;5.17;4.70;;;;;;;;;;640623;224;27499;-69
2022/04/21 12:59:25;;;;;;;5.93;5.33;;;;;;;;;;640652;224;27518;-70
2022/04/21 13:01:53;;;;;;;6.67;5.00;;;;;;;;;;640518;223;27495;-69
2022/04/21 13:04:21;;;;;;;5.40;5.00;;;;;;;;;;634570;224;27497;-69
2022/04/21 13:06:49;;;;;;;4.93;4.53;;;;;;;;;;634473;224;27871;-70
2022/04/21 13:09:17;;;;;;;6.20;4.90;;;;;;;;;;634374;226;27517;-68
2022/04/21 13:11:45;;;;;;;4.60;4.20;;;;;;;;;;634166;224;27769;-70
2022/04/21 13:14:13;;;;;;;6.30;5.60;;;;;;;;;;634222;226;25450;-71
2022/04/21 13:16:41;;;;;;;4.23;3.83;;;;;;;;;;634492;224;27456;-69
2022/04/21 13:19:09;;;;;;;7.10;3.20;;;;;;;;;;638513;224;27529;-69
2022/04/21 13:24:11;;;;;;;5.20;3.00;;;;;;;;;;639474;224;27508;-73
2022/04/21 13:26:39;;;;;;;4.97;3.80;;;;;;;;;;635907;224;27499;-69
2022/04/21 13:29:07;;;;;;;6.43;3.60;;;;;;;;;;637018;224;27463;-70
2022/04/21 13:34:09;;;;;;;5.10;3.70;;;;;;;;;;639538;224;27521;-68
2022/04/21 13:36:38;;;;;;;3.00;2.80;;;;;;;;;;634463;224;27579;-68
2022/04/21 13:39:06;;;;;;;6.47;3.27;;;;;;;;;;633913;224;27510;-70
2022/04/21 13:41:33;;;;;;;3.20;2.90;;;;;;;;;;632028;222;35880;-68
2022/04/21 13:44:01;;;;;;;5.10;2.83;;;;;;;;;;631964;226;28025;-68
2022/04/21 13:46:29;;;;;;;5.53;3.20;;;;;;;;;;631457;226;27717;-68
2022/04/21 13:48:58;;;;;;;7.03;3.17;;;;;;;;;;634226;226;27552;-70
2022/04/21 13:51:26;;;;;;;6.27;2.70;;;;;;;;;;634736;222;27553;-68
2022/04/21 13:53:55;;;;;;;5.43;3.60;;;;;;;;;;634674;226;27843;-68
2022/04/21 13:56:22;;;;;;;6.17;2.97;;;;;;;;;;639078;222;27531;-68
2022/04/21 13:58:50;;;;;;;5.80;2.70;;;;;;;;;;632445;225;27520;-70
2022/04/21 14:01:18;;;;;;;5.33;2.90;;;;;;;;;;632541;227;27533;-69
2022/04/21 14:03:46;;;;;;;8.23;4.00;;;;;;;;;;645634;221;27531;-69
2022/04/21 14:06:14;;;;;;;4.70;2.37;;;;;;;;;;645634;222;27549;-69
2022/04/21 14:08:44;;;;;;;4.70;3.80;;;;;;;;;;640181;222;27464;-69
2022/04/21 14:11:10;;;;;;;4.77;2.63;;;;;;;;;;631809;225;27940;-70
2022/04/21 14:13:38;;;;;;;3.13;2.83;;;;;;;;;;637240;222;27503;-70
2022/04/21 14:16:06;;;;;;;5.10;3.00;;;;;;;;;;622811;227;27516;-69
2022/04/21 14:18:34;;;;;;;6.47;2.97;;;;;;;;;;631711;226;27505;-69
2022/04/21 14:21:03;;;;;;;3.00;2.70;;;;;;;;;;634506;222;27551;-70
2022/04/21 14:23:35;;;;;;;3.40;2.77;;;;;;;;;;631865;222;28033;-69
2022/04/21 14:25:59;;;;;;;4.70;2.60;;;;;;;;;;632843;225;27510;-69
2022/04/21 14:28:26;;;;;;;3.27;2.40;;;;;;;;;;635689;222;27545;-71
2022/04/21 14:30:54;;;;;;;3.47;2.77;;;;;;;;;;645167;222;27480;-71
2022/04/21 14:33:25;;;;;;;3.07;2.77;;;;;;;;;;645007;222;27490;-68
2022/04/21 14:35:50;;;;;;;2.43;2.23;;;;;;;;;;644498;222;27924;-70
2022/04/21 14:46:05;;;;;;;3.43;2.70;;;;;;;;;;631235;226;27542;-71
2022/04/21 14:48:35;;;;;;;4.47;2.43;;;;;;;;;;634189;226;27548;-72
2022/04/21 14:51:05;;;;;;;4.50;2.50;;;;;;;;;;634743;225;27897;-70
2022/04/21 14:53:32;;;;;;;3.33;2.90;;;;;;;;;;634710;225;27505;-71
2022/04/21 14:56:00;;;;;;;3.33;2.67;;;;;;;;;;634804;222;27509;-71
2022/04/21 14:58:28;;;;;;;2.70;2.50;;;;;;;;;;643365;222;27997;-70
2022/04/21 15:00:56;;;;;;;2.97;2.47;;;;;;;;;;638647;222;27509;-71
2022/04/21 15:03:24;;;;;;;3.17;2.97;;;;;;;;;;631528;224;27592;-70
2022/04/21 15:05:53;;;;;;;3.13;2.83;;;;;;;;;;640973;224;27465;-71
2022/04/21 15:08:21;;;;;;;3.10;2.80;;;;;;;;;;640490;222;27494;-70
2022/04/21 15:10:49;;;;;;;2.83;2.53;;;;;;;;;;634129;225;27908;-70
2022/04/21 15:13:18;;;;;;;2.70;2.50;;;;;;;;;;634563;222;27495;-70
2022/04/21 15:15:45;;;;;;;3.03;2.70;;;;;;;;;;640813;222;27538;-71
2022/04/21 15:18:15;;;;;;;3.60;2.77;;;;;;;;;;638298;222;27519;-71
2022/04/21 15:20:45;;;;;;;3.20;2.90;;;;;;;;;;635459;225;27516;-71
2022/04/21 15:23:13;;;;;;;2.93;2.50;;;;;;;;;;633680;222;27897;-71
2022/04/21 15:25:41;;;;;;;3.53;2.60;;;;;;;;;;638065;222;27718;-71
2022/04/21 15:28:10;;;;;;;2.90;2.70;;;;;;;;;;639733;222;27465;-71
2022/04/21 15:30:40;;;;;;;4.30;2.77;;;;;;;;;;644510;222;27473;-71
2022/04/21 15:33:06;;;;;;;3.30;3.00;;;;;;;;;;644822;221;27539;-71
2022/04/21 15:35:34;;;;;;;3.27;3.00;;;;;;;;;;645224;222;27959;-71
2022/04/21 15:38:02;;;;;;;3.37;2.70;;;;;;;;;;638735;222;27460;-71
2022/04/21 15:40:30;;;;;;;3.13;2.93;;;;;;;;;;637931;222;27493;-70
2022/04/21 15:42:58;;;;;;;3.70;3.40;;;;;;;;;;645072;222;27509;-71
2022/04/21 15:45:26;;;;;;;3.20;2.67;;;;;;;;;;644983;222;27474;-71
2022/04/21 15:47:54;;;;;;;2.50;2.30;;;;;;;;;;638975;222;27514;-71
2022/04/21 15:50:22;;;;;;;2.60;2.40;;;;;;;;;;634808;226;27487;-71
2022/04/21 15:52:50;;;;;;;5.87;2.87;;;;;;;;;;634788;225;27534;-71
2022/04/21 16:00:26;;;;;;;2.97;2.77;;;;;;;;;;631426;227;27495;-71
2022/04/21 16:02:54;;;;;;;4.13;2.60;;;;;;;;;;638885;222;27491;-71
2022/04/21 16:05:23;;;;;;;2.70;2.50;;;;;;;;;;644862;222;27963;-70